Time;durP1;ratioP1;P1;durP2;ratioP2;P2;SDS_P1;SDS_P2;PMS_P1;PMS_P2;Temp;Humidity;BMP_temperature;BMP_pressure;BME280_temperature;BME280_humidity;BME280_pressure;Samples;Min_cycle;Max_cycle;Signal;HPM_P1;HPM_P2
2022/06/13 00:01:32;;;;;;;11.05;8.20;;;;;;;18.00;57.67;98472.22;5091533;28;20486;-71
2022/06/13 00:03:59;;;;;;;8.90;7.80;;;;;;;17.98;57.99;98468.94;5107863;28;20023;-71
2022/06/13 00:06:24;;;;;;;10.02;8.10;;;;;;;17.94;58.10;98473.56;5110021;28;20057;-71
2022/06/13 00:08:50;;;;;;;11.25;8.18;;;;;;;17.94;58.24;98478.31;5110012;28;20031;-72
2022/06/13 00:11:19;;;;;;;9.75;8.13;;;;;;;17.90;58.34;98472.66;5109926;28;20059;-71
2022/06/13 00:13:50;;;;;;;9.88;8.05;;;;;;;17.89;58.22;98467.44;5111115;28;20035;-71
2022/06/13 00:16:16;;;;;;;11.65;8.02;;;;;;;17.90;58.39;98471.81;5111575;28;20028;-71
2022/06/13 00:18:47;;;;;;;12.02;7.90;;;;;;;17.88;58.26;98469.41;5111503;28;20058;-71
2022/06/13 00:21:14;;;;;;;10.65;8.23;;;;;;;17.88;58.24;98468.59;5110932;28;20438;-71
2022/06/13 00:23:40;;;;;;;9.65;8.15;;;;;;;17.85;58.57;98470.09;5109649;28;20534;-71
2022/06/13 00:26:05;;;;;;;7.88;7.07;;;;;;;17.82;58.69;98459.69;5109835;28;20107;-71
2022/06/13 00:28:31;;;;;;;8.50;7.45;;;;;;;17.79;58.96;98460.38;5109977;28;20028;-71
2022/06/13 00:30:56;;;;;;;8.68;7.05;;;;;;;17.73;58.45;98447.88;5109467;28;20020;-71
2022/06/13 00:33:23;;;;;;;9.48;7.82;;;;;;;17.66;58.70;98451.22;5110129;28;20061;-71
2022/06/13 00:35:49;;;;;;;10.10;8.77;;;;;;;17.51;59.72;98445.19;5091891;28;20063;-71
2022/06/13 00:38:15;;;;;;;10.73;9.27;;;;;;;17.38;59.83;98440.75;5114138;28;20606;-71
2022/06/13 00:40:41;;;;;;;9.55;8.45;;;;;;;17.32;60.14;98439.38;5113668;28;20042;-71
2022/06/13 00:43:06;;;;;;;11.00;8.82;;;;;;;17.30;60.33;98436.13;5114211;28;20023;-71
2022/06/13 00:45:36;;;;;;;11.27;8.93;;;;;;;17.29;59.91;98440.06;5113873;28;20028;-71
2022/06/13 00:48:02;;;;;;;10.05;8.70;;;;;;;17.29;60.18;98429.75;5114070;28;20051;-71
2022/06/13 00:50:48;;;;;;;9.98;8.98;;;;;;;17.32;60.13;98425.50;5113465;28;20118;-71
2022/06/13 00:53:21;;;;;;;10.77;8.25;;;;;;;17.29;60.29;98426.19;5095702;28;20035;-70
2022/06/13 00:55:51;;;;;;;9.82;8.73;;;;;;;17.24;60.18;98425.25;5113831;28;20373;-71
2022/06/13 00:58:18;;;;;;;9.63;8.68;;;;;;;17.22;60.25;98424.78;5113750;28;20016;-71
2022/06/13 01:00:49;;;;;;;9.57;8.57;;;;;;;17.21;60.19;98420.38;5113458;28;20022;-71
2022/06/13 01:03:15;;;;;;;10.90;9.02;;;;;;;17.21;60.19;98422.34;5114544;28;20085;-72
2022/06/13 01:05:45;;;;;;;11.80;9.57;;;;;;;17.22;60.31;98415.63;5114818;28;20049;-71
2022/06/13 01:08:12;;;;;;;10.27;9.23;;;;;;;17.21;60.33;98411.25;5114712;28;20054;-71
2022/06/13 01:14:00;;;;;;;9.60;8.63;;;;;;;17.04;60.50;98403.91;5114699;28;20506;-71
2022/06/13 01:16:44;;;;;;;12.07;8.63;;;;;;;16.98;60.56;98406.09;5114451;28;20574;-71
2022/06/13 01:19:22;;;;;;;9.30;8.18;;;;;;;16.99;60.96;98395.81;5114343;28;20034;-71
2022/06/13 01:21:56;;;;;;;9.88;8.07;;;;;;;16.99;61.08;98396.66;5113914;28;20107;-71
2022/06/13 01:24:34;;;;;;;9.82;8.65;;;;;;;17.00;60.96;98389.13;5113992;28;20055;-71
2022/06/13 01:27:33;;;;;;;10.10;8.23;;;;;;;16.99;60.67;98382.78;5114385;28;20042;-71
2022/06/13 01:30:26;;;;;;;10.43;8.25;;;;;;;16.93;60.74;98393.22;5115024;27;20393;-72
2022/06/13 01:33:12;;;;;;;9.88;7.90;;;;;;;16.89;61.07;98386.78;5114389;28;20024;-72
2022/06/13 01:36:21;;;;;;;10.25;8.07;;;;;;;16.84;61.00;98388.94;5096142;28;20035;-71
2022/06/13 01:39:05;;;;;;;8.63;7.72;;;;;;;16.84;61.06;98391.69;5066541;28;20155;-71
2022/06/13 01:41:48;;;;;;;9.60;7.50;;;;;;;16.81;61.06;98385.69;5113527;28;20042;-71
2022/06/13 01:44:20;;;;;;;12.02;7.82;;;;;;;16.72;61.45;98382.19;5113828;28;20027;-71
2022/06/13 01:47:02;;;;;;;8.52;7.45;;;;;;;16.70;60.81;98384.50;5114151;28;20026;-71
2022/06/13 01:49:59;;;;;;;8.75;7.82;;;;;;;16.64;61.50;98392.19;5112854;28;20032;-71
2022/06/13 01:52:48;;;;;;;8.80;7.78;;;;;;;16.58;61.17;98387.19;5113588;28;20107;-71
2022/06/13 01:55:19;;;;;;;8.73;7.82;;;;;;;16.54;61.32;98387.06;5113632;28;20028;-71
2022/06/13 01:57:53;;;;;;;11.25;8.23;;;;;;;16.48;61.74;98382.88;5114116;28;20388;-71
2022/06/13 02:00:29;;;;;;;8.60;7.55;;;;;;;16.40;61.81;98375.44;5113206;28;20077;-72
2022/06/13 02:03:09;;;;;;;8.77;7.90;;;;;;;16.35;61.75;98373.69;5113808;28;20023;-71
2022/06/13 02:05:41;;;;;;;10.07;8.93;;;;;;;16.29;61.81;98372.28;5113286;28;20391;-71
2022/06/13 02:08:11;;;;;;;10.27;8.65;;;;;;;16.21;62.62;98362.88;5113892;28;20047;-72
2022/06/13 02:10:42;;;;;;;10.55;9.20;;;;;;;16.13;62.23;98370.09;5113179;28;20031;-71
2022/06/13 02:13:15;;;;;;;10.13;8.68;;;;;;;16.08;62.93;98364.75;5113362;28;20035;-71
2022/06/13 02:15:47;;;;;;;9.90;8.68;;;;;;;16.10;63.04;98367.22;5113014;28;20016;-71
2022/06/13 02:18:30;;;;;;;10.02;8.30;;;;;;;16.12;62.82;98368.47;5112994;28;21448;-71
2022/06/13 02:21:08;;;;;;;10.75;8.85;;;;;;;16.15;62.94;98364.22;5113090;28;20490;-72
2022/06/13 02:23:40;;;;;;;11.13;8.77;;;;;;;16.17;62.73;98364.69;5112959;28;20027;-72
2022/06/13 02:26:11;;;;;;;11.25;9.10;;;;;;;16.21;62.54;98368.41;5113604;28;20084;-71
2022/06/13 02:28:54;;;;;;;12.98;8.93;;;;;;;16.22;62.37;98365.31;5113118;28;20034;-72
2022/06/13 02:31:26;;;;;;;11.68;8.85;;;;;;;16.20;62.70;98352.94;5112724;28;20023;-72
2022/06/13 02:34:00;;;;;;;12.27;9.30;;;;;;;16.14;62.65;98348.75;5113035;28;20019;-72
2022/06/13 02:36:31;;;;;;;11.02;9.57;;;;;;;16.04;63.12;98349.97;5113266;28;20046;-72
2022/06/13 02:39:08;;;;;;;12.20;9.20;;;;;;;15.93;62.92;98344.81;5094681;28;20114;-72
2022/06/13 02:41:42;;;;;;;11.57;8.43;;;;;;;15.89;63.47;98345.84;5112542;28;20047;-73
2022/06/13 02:44:32;;;;;;;9.70;8.45;;;;;;;15.86;63.73;98349.25;5112939;28;20487;-72
2022/06/13 02:47:04;;;;;;;9.30;8.32;;;;;;;15.85;63.68;98347.63;5113230;28;20053;-72
2022/06/13 02:49:36;;;;;;;9.88;8.38;;;;;;;15.90;63.53;98353.78;5113057;28;20027;-72
2022/06/13 02:52:16;;;;;;;11.90;8.80;;;;;;;15.95;63.73;98347.28;5112706;28;20031;-72
2022/06/13 02:54:49;;;;;;;12.05;8.20;;;;;;;16.00;63.70;98357.31;5112506;28;20020;-72
2022/06/13 02:57:36;;;;;;;9.65;8.60;;;;;;;16.00;63.64;98349.84;5113106;28;20031;-72
2022/06/13 03:00:08;;;;;;;12.25;8.20;;;;;;;16.00;63.58;98343.50;5112189;28;20034;-72
2022/06/13 03:03:09;;;;;;;10.15;8.45;;;;;;;15.97;63.40;98346.91;5112578;28;20107;-72
2022/06/13 03:05:34;;;;;;;10.63;8.30;;;;;;;15.89;63.49;98349.44;5116107;27;20028;-72
2022/06/13 03:08:11;;;;;;;9.80;8.52;;;;;;;15.88;63.29;98346.97;5112961;28;20152;-72
2022/06/13 03:10:46;;;;;;;12.80;7.90;;;;;;;15.83;63.89;98336.91;5112079;28;20037;-72
2022/06/13 03:13:54;;;;;;;12.55;8.60;;;;;;;15.76;64.04;98336.63;5112345;28;20023;-72
2022/06/13 03:16:34;;;;;;;11.32;8.30;;;;;;;15.74;63.97;98338.91;5060720;28;20046;-71
2022/06/13 03:19:15;;;;;;;10.45;8.23;;;;;;;15.72;64.50;98335.66;5112393;28;20042;-71
2022/06/13 03:21:55;;;;;;;8.75;7.90;;;;;;;15.77;64.08;98341.00;5112119;28;20024;-72
2022/06/13 03:24:54;;;;;;;11.05;8.15;;;;;;;15.85;63.97;98336.56;5111396;28;20471;-72
2022/06/13 03:27:31;;;;;;;11.13;8.57;;;;;;;15.91;64.07;98332.50;5100975;28;20040;-71
2022/06/13 03:30:10;;;;;;;11.93;8.43;;;;;;;15.97;64.32;98333.91;5112089;28;20028;-72
2022/06/13 03:35:39;;;;;;;10.82;7.90;;;;;;;15.96;63.98;98328.69;5059950;28;20028;-72
2022/06/13 03:38:09;;;;;;;8.70;7.80;;;;;;;15.92;64.05;98325.81;5112235;28;20027;-72
2022/06/13 03:40:39;;;;;;;10.75;7.88;;;;;;;15.96;64.21;98334.22;5111758;28;20064;-72
2022/06/13 03:43:08;;;;;;;;;;;;;;;16.00;64.23;98329.66;5112565;28;20429;-71
2022/06/13 03:45:48;;;;;;;9.63;8.07;;;;;;;16.01;64.37;98321.03;5111864;28;20007;-72
2022/06/13 03:48:29;;;;;;;9.55;7.65;;;;;;;16.05;64.61;98323.94;5112423;28;20027;-72
2022/06/13 03:51:06;;;;;;;8.88;7.43;;;;;;;16.07;64.63;98316.94;5111793;28;20031;-72
2022/06/13 03:53:40;;;;;;;8.27;7.47;;;;;;;16.12;64.94;98326.16;5111756;28;20106;-71
2022/06/13 03:56:12;;;;;;;8.75;7.30;;;;;;;16.17;64.43;98317.66;5112162;28;20026;-71
2022/06/13 03:58:46;;;;;;;8.82;6.90;;;;;;;16.24;64.51;98323.47;5111712;28;20111;-71
2022/06/13 04:01:20;;;;;;;8.57;7.22;;;;;;;16.28;64.75;98315.31;5111013;28;20063;-72
2022/06/13 04:03:46;;;;;;;8.82;7.40;;;;;;;16.35;64.69;98319.16;5111117;28;20038;-71
2022/06/13 04:06:40;;;;;;;9.52;7.60;;;;;;;16.43;64.71;98314.69;5111674;28;20488;-71
2022/06/13 04:09:11;;;;;;;9.45;7.47;;;;;;;16.48;64.09;98308.94;5111750;28;20055;-71
2022/06/13 04:11:52;;;;;;;9.48;6.82;;;;;;;16.55;64.22;98313.13;5110576;28;20024;-72
2022/06/13 04:14:23;;;;;;;8.60;6.82;;;;;;;16.63;63.98;98315.81;5111209;28;20497;-72
2022/06/13 04:16:49;;;;;;;10.02;7.53;;;;;;;16.74;64.20;98315.38;5111850;28;20469;-71
2022/06/13 04:19:39;;;;;;;7.93;6.88;;;;;;;16.84;64.21;98312.19;5111343;28;20059;-71
2022/06/13 04:22:20;;;;;;;9.85;6.82;;;;;;;16.93;63.69;98307.34;5110688;28;20024;-71
2022/06/13 04:24:51;;;;;;;8.85;6.72;;;;;;;17.03;63.98;98316.41;5111062;28;20099;-72
2022/06/13 04:27:43;;;;;;;9.80;7.07;;;;;;;17.10;63.49;98325.81;5111532;28;20023;-71
2022/06/13 04:30:15;;;;;;;10.43;7.00;;;;;;;17.21;63.15;98323.41;5063055;28;20051;-71
2022/06/13 04:32:48;;;;;;;10.18;7.22;;;;;;;17.31;63.23;98319.34;5110769;28;20053;-71
2022/06/13 04:35:15;;;;;;;8.40;6.45;;;;;;;17.43;63.28;98314.97;5092505;28;20823;-72
2022/06/13 04:37:42;;;;;;;9.57;6.47;;;;;;;17.52;63.31;98313.72;5111081;28;20106;-71
2022/06/13 04:40:13;;;;;;;10.02;7.00;;;;;;;17.64;63.19;98309.31;5110835;28;20035;-71
2022/06/13 04:42:41;;;;;;;9.45;6.97;;;;;;;17.73;63.05;98312.75;5110774;28;20033;-71
2022/06/13 04:45:34;;;;;;;6.88;5.95;;;;;;;17.81;62.90;98311.84;5110220;28;20046;-71
2022/06/13 04:48:01;;;;;;;8.02;5.53;;;;;;;17.94;62.50;98312.63;5110763;28;20032;-71
2022/06/13 04:50:41;;;;;;;10.65;5.82;;;;;;;18.07;62.54;98316.25;5110661;28;20062;-71
2022/06/13 04:53:16;;;;;;;6.88;5.30;;;;;;;18.22;62.30;98324.97;5110934;28;20483;-71
2022/06/13 04:55:50;;;;;;;7.88;5.72;;;;;;;18.36;61.85;98330.97;5110351;28;20075;-71
2022/06/13 04:58:32;;;;;;;8.13;4.97;;;;;;;18.52;61.86;98333.03;5110819;28;20051;-71
2022/06/13 05:01:05;;;;;;;6.95;5.28;;;;;;;18.67;61.64;98329.47;5110771;28;20031;-71
2022/06/13 05:03:36;;;;;;;6.75;5.05;;;;;;;18.87;61.53;98337.97;5111154;28;20483;-71
2022/06/13 05:06:06;;;;;;;5.45;4.70;;;;;;;19.03;60.84;98332.47;5092345;28;20119;-71
2022/06/13 05:08:36;;;;;;;7.80;4.82;;;;;;;19.18;60.67;98353.91;5110934;28;20050;-71
2022/06/13 05:11:24;;;;;;;;;;;;;;;19.31;59.99;98374.13;5111165;28;20111;-71
2022/06/13 05:13:55;;;;;;;12.45;6.35;;;;;;;19.37;59.67;98363.53;5101868;28;19915;-71
2022/06/13 05:16:23;;;;;;;9.43;6.90;;;;;;;19.34;59.07;98378.97;5110532;28;20028;-71
2022/06/13 05:19:07;;;;;;;9.55;6.82;;;;;;;19.32;59.06;98386.03;5110636;28;20023;-70
2022/06/13 05:22:14;;;;;;;11.80;7.15;;;;;;;19.40;59.33;98379.50;5110483;28;20031;-71
2022/06/13 05:24:51;;;;;;;9.27;6.90;;;;;;;19.50;59.01;98389.28;5074510;28;20047;-71
2022/06/13 05:27:16;;;;;;;10.25;7.00;;;;;;;19.52;58.09;98391.72;5114626;28;20024;-72
2022/06/13 05:29:42;;;;;;;7.95;6.05;;;;;;;19.58;58.17;98404.16;5114379;28;20087;-72
2022/06/13 05:32:09;;;;;;;7.30;5.55;;;;;;;19.56;57.75;98406.53;5114092;28;20460;-71
2022/06/13 05:34:39;;;;;;;8.10;5.32;;;;;;;19.53;57.60;98394.13;5113852;28;20027;-71
2022/06/13 05:37:05;;;;;;;;;;;;;;;19.47;57.93;98388.03;5114808;28;20024;-71
2022/06/13 05:39:31;;;;;;;6.38;5.68;;;;;;;19.44;58.01;98399.88;5114218;28;19920;-71
2022/06/13 05:41:57;;;;;;;6.57;5.43;;;;;;;19.40;58.44;98392.59;5113468;28;20031;-72
2022/06/13 05:44:22;;;;;;;6.60;5.88;;;;;;;19.38;58.67;98389.34;5113483;28;20041;-71
2022/06/13 05:46:48;;;;;;;7.03;5.53;;;;;;;19.36;58.67;98392.50;5113831;28;20467;-72
2022/06/13 05:49:14;;;;;;;6.45;5.40;;;;;;;19.33;59.47;98396.00;5113981;28;20027;-71
2022/06/13 05:51:41;;;;;;;7.25;5.40;;;;;;;19.31;59.40;98388.03;5113810;28;20030;-72
2022/06/13 05:54:09;;;;;;;7.93;7.10;;;;;;;19.33;59.29;98393.22;5113333;28;20417;-72
2022/06/13 05:56:36;;;;;;;9.02;5.85;;;;;;;19.38;59.36;98381.81;5113418;28;20039;-72
2022/06/13 05:59:01;;;;;;;8.35;5.47;;;;;;;19.37;59.43;98391.34;5113697;28;20534;-71
2022/06/13 06:01:26;;;;;;;5.50;4.95;;;;;;;19.42;59.37;98401.38;5113555;28;20209;-71
2022/06/13 06:03:52;;;;;;;8.95;5.25;;;;;;;19.46;59.72;98403.09;5113355;28;20456;-71
2022/06/13 06:06:23;;;;;;;6.10;5.00;;;;;;;19.54;60.08;98401.31;5113511;28;20411;-72
2022/06/13 06:08:50;;;;;;;8.25;5.00;;;;;;;19.59;59.72;98392.69;5095659;28;20032;-72
2022/06/13 06:11:16;;;;;;;5.68;4.88;;;;;;;19.68;59.33;98391.72;5113347;28;20026;-72
2022/06/13 06:13:41;;;;;;;6.05;4.65;;;;;;;19.74;59.44;98388.31;5113796;28;20098;-71
2022/06/13 06:16:13;;;;;;;6.32;4.40;;;;;;;19.77;59.23;98383.97;5113381;28;20064;-72
2022/06/13 06:18:38;;;;;;;5.40;4.90;;;;;;;19.74;59.06;98381.94;5113283;28;20576;-71
2022/06/13 06:21:05;;;;;;;5.72;4.30;;;;;;;19.69;59.00;98374.66;5113431;28;20103;-72
2022/06/13 06:23:30;;;;;;;5.43;4.50;;;;;;;19.72;59.15;98364.78;5113541;28;20475;-71
2022/06/13 06:25:56;;;;;;;5.05;4.10;;;;;;;19.75;58.95;98367.66;5112763;28;20043;-72
2022/06/13 06:28:24;;;;;;;5.38;4.13;;;;;;;19.78;59.21;98363.34;5113402;28;20077;-71
2022/06/13 06:30:51;;;;;;;6.50;4.40;;;;;;;;;;5094644;28;20184;-71
2022/06/13 06:33:16;;;;;;;5.55;4.13;;;;;;;19.76;58.69;98351.78;5113006;28;20027;-72
2022/06/13 06:35:42;;;;;;;4.60;3.85;;;;;;;19.73;58.62;98355.28;5111788;28;20024;-71
2022/06/13 06:38:09;;;;;;;5.93;4.47;;;;;;;19.64;58.60;98361.84;5112751;28;20020;-72
2022/06/13 06:40:35;;;;;;;4.13;3.72;;;;;;;19.56;58.64;98348.91;5112253;28;20077;-72
2022/06/13 06:43:01;;;;;;;5.63;4.47;;;;;;;19.52;58.95;98355.56;5113048;28;20022;-71
2022/06/13 06:45:27;;;;;;;7.82;4.30;;;;;;;19.48;58.89;98355.44;5112820;28;20092;-72
2022/06/13 06:47:54;;;;;;;4.75;4.35;;;;;;;19.46;58.97;98358.59;5113341;28;20115;-72
2022/06/13 06:50:23;;;;;;;5.45;4.95;;;;;;;19.44;59.24;98369.28;5112743;28;20023;-72
2022/06/13 06:52:49;;;;;;;7.40;4.40;;;;;;;19.41;59.09;98370.00;5113312;28;20046;-72
2022/06/13 07:00:47;;;;;;;6.53;4.10;;;;;;;19.40;59.18;98379.50;5112689;28;20084;-71
2022/06/13 07:03:13;;;;;;;5.43;3.72;;;;;;;19.40;59.33;98385.06;5112550;28;20077;-71
2022/06/13 07:05:39;;;;;;;4.80;4.03;;;;;;;19.36;59.39;98400.84;5112441;28;20069;-71
2022/06/13 07:08:04;;;;;;;4.88;3.47;;;;;;;19.31;59.85;98388.03;5112517;28;20043;-72
2022/06/13 07:10:30;;;;;;;9.23;4.05;;;;;;;19.26;59.55;98410.53;5112250;28;20075;-72
2022/06/13 07:12:57;;;;;;;4.72;3.80;;;;;;;19.23;59.61;98418.75;5112378;28;20489;-72
2022/06/13 07:15:22;;;;;;;5.72;3.47;;;;;;;19.17;59.68;98410.66;5112066;28;20403;-71
2022/06/13 07:17:48;;;;;;;8.25;3.85;;;;;;;19.14;59.83;98413.34;5112268;28;20027;-72
2022/06/13 07:20:14;;;;;;;4.72;4.07;;;;;;;19.10;59.86;98416.03;5111966;28;20038;-70
2022/06/13 07:22:51;;;;;;;4.25;3.53;;;;;;;19.02;59.92;98403.91;5112120;28;20214;-70
2022/06/13 07:25:20;;;;;;;4.63;3.13;;;;;;;19.02;60.09;98408.66;5111718;28;20093;-70
2022/06/13 07:27:45;;;;;;;4.75;3.50;;;;;;;18.92;60.42;98415.50;5112067;28;20062;-69
2022/06/13 07:30:12;;;;;;;4.25;3.80;;;;;;;18.88;60.35;98412.63;5111612;28;20423;-70
2022/06/13 07:32:39;;;;;;;6.88;3.47;;;;;;;18.89;60.76;98411.44;5111914;28;20035;-71
2022/06/13 07:35:06;;;;;;;3.97;3.40;;;;;;;18.94;60.87;98415.97;5110843;28;20170;-71
2022/06/13 07:40:15;;;;;;;4.25;3.72;;;;;;;18.92;61.31;98401.63;5093065;28;20050;-71
2022/06/13 07:42:47;;;;;;;4.95;3.80;;;;;;;18.86;61.44;98395.47;5110855;28;20024;-71
2022/06/13 07:45:19;;;;;;;3.58;3.28;;;;;;;18.79;61.66;98406.38;5092153;28;20019;-71
2022/06/13 07:47:45;;;;;;;4.72;3.13;;;;;;;18.71;62.90;98385.13;5110340;27;20024;-70
2022/06/13 07:50:13;;;;;;;5.55;3.47;;;;;;;18.54;62.54;98391.78;5112207;27;20539;-71
2022/06/13 07:52:39;;;;;;;3.50;2.95;;;;;;;18.49;63.93;98395.59;5117863;27;20069;-70
2022/06/13 07:55:05;;;;;;;4.38;3.30;;;;;;;18.37;63.28;98390.91;5110159;28;20446;-69
2022/06/13 07:57:31;;;;;;;4.90;3.40;;;;;;;18.29;63.30;98389.06;5111237;28;20069;-70
2022/06/13 07:59:56;;;;;;;3.90;3.00;;;;;;;18.29;63.56;98395.44;5113952;27;20096;-70
2022/06/13 08:02:31;;;;;;;4.72;3.35;;;;;;;18.35;64.90;98389.59;5096470;27;20066;-69
2022/06/13 08:04:57;;;;;;;5.00;3.10;;;;;;;18.30;64.00;98391.50;5087825;28;20023;-70
2022/06/13 08:07:23;;;;;;;3.55;2.90;;;;;;;18.33;64.00;98391.97;5108536;28;20372;-70
2022/06/13 08:09:49;;;;;;;4.60;3.92;;;;;;;18.39;64.63;98383.03;5108829;28;20050;-71
2022/06/13 08:12:17;;;;;;;5.97;3.67;;;;;;;18.48;64.18;98384.84;5109409;28;20571;-71
2022/06/13 08:14:47;;;;;;;3.67;2.80;;;;;;;18.57;64.32;98388.28;5090708;28;20054;-69
2022/06/13 08:17:18;;;;;;;4.28;2.80;;;;;;;18.61;64.04;98383.66;5110328;27;20102;-70
2022/06/13 08:19:44;;;;;;;3.78;2.80;;;;;;;18.69;64.00;98379.13;5109340;28;20027;-70
2022/06/13 08:22:10;;;;;;;3.13;2.70;;;;;;;18.75;63.78;98374.91;5107828;27;20028;-71
2022/06/13 08:24:35;;;;;;;4.55;3.28;;;;;;;18.83;63.95;98373.97;5108302;28;20061;-70
2022/06/13 08:27:01;;;;;;;5.43;4.53;;;;;;;18.85;63.59;98368.84;5091101;28;20032;-69
2022/06/13 08:29:26;;;;;;;3.88;3.47;;;;;;;18.93;64.29;98377.41;5109761;28;20027;-69
2022/06/13 08:31:52;;;;;;;5.78;3.78;;;;;;;18.93;64.03;98381.00;5108062;28;20467;-69
2022/06/13 08:34:19;;;;;;;4.35;3.30;;;;;;;18.91;64.51;98380.56;5104523;28;20028;-71
2022/06/13 08:36:46;;;;;;;3.55;2.75;;;;;;;18.93;64.58;98382.97;5106263;28;20499;-70
2022/06/13 08:39:12;;;;;;;3.88;2.80;;;;;;;18.91;64.30;98383.31;5109367;28;20476;-70
2022/06/13 08:41:53;;;;;;;5.13;3.00;;;;;;;18.91;64.14;98391.66;5109145;28;20034;-70
2022/06/13 08:44:47;;;;;;;12.48;7.20;;;;;;;18.96;64.13;98382.28;5108378;28;20055;-69
2022/06/13 08:47:23;;;;;;;11.50;7.65;;;;;;;18.98;64.03;98391.06;5091760;28;20034;-69
2022/06/13 08:49:52;;;;;;;4.88;3.95;;;;;;;19.01;64.39;98393.16;5091437;28;20051;-70
2022/06/13 08:52:33;;;;;;;7.68;4.43;;;;;;;19.02;64.63;98392.78;5090649;28;20646;-69
2022/06/13 08:55:13;;;;;;;4.32;3.10;;;;;;;19.08;64.65;98395.31;5108462;28;20046;-69
2022/06/13 08:57:45;;;;;;;3.13;2.80;;;;;;;19.06;64.70;98394.84;5111000;28;20035;-69
2022/06/13 09:00:24;;;;;;;3.45;3.00;;;;;;;19.05;64.53;98394.06;5106764;28;20046;-68
2022/06/13 09:02:55;;;;;;;3.35;2.70;;;;;;;19.16;64.52;98388.78;5094304;28;20072;-69
2022/06/13 09:05:33;;;;;;;2.60;2.40;;;;;;;19.22;64.53;98379.03;5113342;27;20080;-67
2022/06/13 09:08:21;;;;;;;2.90;2.47;;;;;;;19.27;64.56;98376.00;5110015;27;20039;-68
2022/06/13 09:11:02;;;;;;;3.45;2.60;;;;;;;19.39;64.60;98371.50;5111013;28;20635;-68
2022/06/13 09:13:46;;;;;;;3.17;2.60;;;;;;;19.49;64.54;98371.78;5113315;28;20051;-68
2022/06/13 09:16:32;;;;;;;3.55;3.15;;;;;;;19.61;64.09;98364.50;5112802;28;20035;-67
2022/06/13 09:19:20;;;;;;;3.38;3.05;;;;;;;19.79;64.55;98345.47;5113357;28;20048;-68
2022/06/13 09:21:56;;;;;;;2.92;2.63;;;;;;;19.96;64.46;98344.34;5113457;27;20032;-68
2022/06/13 09:24:30;;;;;;;3.60;2.85;;;;;;;20.13;64.39;98354.25;5096010;27;20556;-68
2022/06/13 09:27:09;;;;;;;3.47;3.17;;;;;;;20.23;64.55;98362.03;5114091;27;20031;-69
2022/06/13 09:29:46;;;;;;;3.60;3.03;;;;;;;20.41;64.77;98369.97;5113198;28;20095;-68
2022/06/13 09:32:23;;;;;;;5.57;3.65;;;;;;;20.53;65.33;98372.66;5095995;28;20491;-68
2022/06/13 09:34:54;;;;;;;4.22;2.65;;;;;;;20.56;64.44;98375.88;5111887;28;20035;-69
2022/06/13 09:37:44;;;;;;;2.97;2.50;;;;;;;20.61;64.29;98372.78;5114481;27;20108;-70
2022/06/13 09:40:14;;;;;;;5.07;2.50;;;;;;;20.62;63.92;98372.41;5097668;28;20046;-71
2022/06/13 09:42:45;;;;;;;2.30;2.08;;;;;;;20.60;63.63;98374.75;5114320;27;20091;-71
2022/06/13 09:45:17;;;;;;;3.53;2.00;;;;;;;20.57;63.58;98372.72;5112655;28;20487;-71
2022/06/13 09:47:56;;;;;;;2.50;2.15;;;;;;;20.54;62.90;98379.00;5114092;27;20483;-71
2022/06/13 09:50:43;;;;;;;3.88;2.13;;;;;;;20.54;62.93;98367.88;5112515;28;20039;-70
2022/06/13 09:53:36;;;;;;;5.13;2.63;;;;;;;20.62;62.99;98369.63;5116172;27;20019;-73
2022/06/13 09:56:24;;;;;;;4.03;2.60;;;;;;;20.66;62.57;98361.34;5113428;27;20032;-74
2022/06/13 09:59:30;;;;;;;2.47;2.28;;;;;;;20.74;62.88;98353.94;5112623;28;20028;-71
2022/06/13 10:02:09;;;;;;;2.30;2.10;;;;;;;20.82;62.26;98355.72;5106796;27;20119;-68
2022/06/13 10:04:53;;;;;;;2.90;2.15;;;;;;;20.73;62.09;98357.91;5108835;28;20027;-68
2022/06/13 10:07:33;;;;;;;4.40;2.45;;;;;;;20.74;62.23;98348.38;5114066;27;20046;-68
2022/06/13 10:10:25;;;;;;;3.28;2.22;;;;;;;20.71;62.07;98358.25;5117187;27;20032;-69
2022/06/13 10:12:51;;;;;;;3.05;2.33;;;;;;;20.72;62.26;98361.88;5111358;27;20055;-69
2022/06/13 10:15:48;;;;;;;2.92;2.20;;;;;;;20.71;62.15;98355.47;5111816;28;20093;-69
2022/06/13 10:18:25;;;;;;;2.75;2.38;;;;;;;20.62;61.92;98374.38;5115253;27;20069;-71
2022/06/13 10:21:00;;;;;;;3.58;2.30;;;;;;;20.61;62.22;98369.97;5111406;27;20110;-69
2022/06/13 10:23:52;;;;;;;4.07;2.85;;;;;;;20.63;62.25;98362.88;5118391;27;20034;-70
2022/06/13 10:26:59;;;;;;;4.13;2.97;;;;;;;20.63;62.12;98365.69;5092564;28;20547;-71
2022/06/13 10:29:58;;;;;;;3.75;2.50;;;;;;;20.71;62.10;98351.91;4985830;28;20034;-70
2022/06/13 10:32:42;;;;;;;2.85;2.15;;;;;;;20.71;62.02;98355.47;5111390;27;20035;-70
2022/06/13 10:35:23;;;;;;;4.32;2.78;;;;;;;20.69;61.72;98360.59;5111264;28;20026;-69
2022/06/13 10:38:13;;;;;;;5.22;3.20;;;;;;;20.71;61.65;98358.25;5110501;28;20111;-72
2022/06/13 10:40:40;;;;;;;3.20;2.90;;;;;;;20.90;61.98;98365.84;5111103;28;20047;-69
2022/06/13 10:43:06;;;;;;;3.45;2.78;;;;;;;20.97;62.03;98367.97;5111461;28;20472;-69
2022/06/13 10:45:34;;;;;;;5.43;2.72;;;;;;;21.10;62.08;98363.03;5114364;27;20035;-71
2022/06/13 10:48:03;;;;;;;5.03;3.00;;;;;;;21.38;61.98;98356.38;5111968;28;20024;-68
2022/06/13 10:50:34;;;;;;;5.40;3.15;;;;;;;21.67;61.85;98354.09;5111357;27;20027;-69
2022/06/13 10:53:04;;;;;;;3.60;3.00;;;;;;;21.98;61.83;98347.41;5115080;27;20506;-70
2022/06/13 10:55:35;;;;;;;2.25;2.08;;;;;;;22.00;59.95;98359.00;5111746;28;20725;-71
2022/06/13 10:58:08;;;;;;;2.15;1.92;;;;;;;21.97;59.12;98351.38;5115113;27;20030;-71
2022/06/13 11:00:33;;;;;;;2.42;1.95;;;;;;;22.00;58.88;98350.63;5111159;28;20038;-70
2022/06/13 11:03:16;;;;;;;2.90;2.70;;;;;;;22.16;59.17;98358.03;5111458;28;20024;-68
2022/06/13 11:05:54;;;;;;;2.38;2.00;;;;;;;22.23;58.45;98355.31;5111604;28;20077;-69
2022/06/13 11:08:21;;;;;;;1.95;1.73;;;;;;;22.32;57.31;98349.50;5111479;27;20057;-70
2022/06/13 11:11:01;;;;;;;2.75;1.80;;;;;;;22.24;56.65;98354.16;5110806;28;20080;-70
2022/06/13 11:13:37;;;;;;;4.38;1.50;;;;;;;22.26;56.31;98349.00;5105431;28;20111;-69
2022/06/13 11:24:51;;;;;;;4.32;1.92;;;;;;;22.23;56.23;98349.75;5109358;28;20074;-70
2022/06/13 11:27:40;;;;;;;1.75;1.50;;;;;;;22.08;55.73;98362.69;5112948;27;20047;-72
2022/06/13 11:30:27;;;;;;;1.30;1.13;;;;;;;21.80;55.43;98360.28;5112830;27;20051;-70
2022/06/13 11:33:26;;;;;;;1.55;1.27;;;;;;;21.52;55.63;98355.81;5095025;28;20114;-69
2022/06/13 11:36:28;;;;;;;2.42;1.17;;;;;;;21.26;56.15;98360.94;5109871;28;20027;-75
2022/06/13 11:38:55;;;;;;;1.98;1.20;;;;;;;21.08;56.23;98355.03;5066088;28;20048;-74
2022/06/13 11:41:25;;;;;;;1.30;1.10;;;;;;;20.95;56.51;98356.38;5112835;27;20510;-74
2022/06/13 11:44:00;;;;;;;1.33;1.20;;;;;;;20.84;56.79;98356.16;5114409;27;20035;-76
2022/06/13 11:46:31;;;;;;;2.63;1.38;;;;;;;20.72;56.89;98345.16;5110113;27;20192;-74
2022/06/13 11:49:19;;;;;;;1.50;1.40;;;;;;;20.53;57.06;98347.56;5106466;28;20112;-76
2022/06/13 11:51:47;;;;;;;2.63;1.40;;;;;;;20.37;57.51;98341.25;5089355;28;20490;-75
2022/06/13 11:54:23;;;;;;;2.75;1.20;;;;;;;20.44;57.80;98344.19;5108653;28;20050;-75
2022/06/13 11:56:48;;;;;;;1.80;1.40;;;;;;;20.34;57.71;98339.19;5109403;28;20024;-74
2022/06/13 11:59:17;;;;;;;1.75;1.65;;;;;;;20.20;58.07;98336.91;5109524;28;20032;-75
2022/06/13 12:01:44;;;;;;;2.15;1.50;;;;;;;20.14;58.82;98346.69;5108520;27;20058;-76
2022/06/13 12:04:19;;;;;;;2.33;1.80;;;;;;;20.07;58.99;98348.16;5092963;28;20053;-77
2022/06/13 12:06:49;;;;;;;2.10;1.85;;;;;;;20.11;58.75;98344.63;5106737;28;20040;-75
2022/06/13 12:09:21;;;;;;;2.38;1.60;;;;;;;20.13;58.98;98345.09;5104079;27;20031;-76
2022/06/13 12:11:54;;;;;;;2.83;1.75;;;;;;;20.08;59.33;98349.75;5103524;27;20077;-73
2022/06/13 12:14:19;;;;;;;2.15;1.70;;;;;;;19.92;59.16;98337.88;5100882;28;20093;-72
2022/06/13 12:17:07;;;;;;;2.22;1.80;;;;;;;19.88;59.74;98345.28;5106942;28;20059;-72
2022/06/13 12:19:36;;;;;;;2.20;1.90;;;;;;;19.79;59.75;98348.25;5108535;27;20055;-74
2022/06/13 12:22:19;;;;;;;2.35;1.83;;;;;;;19.71;60.28;98349.28;5111141;27;20026;-71
2022/06/13 12:24:49;;;;;;;3.63;2.40;;;;;;;19.49;61.00;98355.09;5108795;27;20027;-71
2022/06/13 12:27:23;;;;;;;3.25;2.50;;;;;;;19.31;60.95;98357.44;5107335;28;20032;-71
2022/06/13 12:29:56;;;;;;;2.95;2.65;;;;;;;19.17;61.89;98357.84;5107758;28;20038;-74